Time;durP1;ratioP1;P1;durP2;ratioP2;P2;SDS_P1;SDS_P2;PMS_P1;PMS_P2;Temp;Humidity;BMP_temperature;BMP_pressure;BME280_temperature;BME280_humidity;BME280_pressure;Samples;Min_cycle;Max_cycle;Signal;HPM_P1;HPM_P2
2021/07/20 00:01:08;;;;;;;14.52;9.55;;;;;;;18.82;60.46;100359.81;4898723;28;96783;-87
2021/07/20 00:03:34;;;;;;;20.33;9.40;;;;;;;18.78;60.81;100363.63;4899415;28;96986;-87
2021/07/20 00:05:59;;;;;;;21.25;10.48;;;;;;;18.80;60.61;100355.53;4882008;28;100967;-87
2021/07/20 00:08:25;;;;;;;15.10;9.38;;;;;;;18.94;59.89;100358.97;4914522;28;97272;-88
2021/07/20 00:10:54;;;;;;;15.68;8.98;;;;;;;18.90;60.21;100364.59;4897402;28;97379;-87
2021/07/20 00:13:20;;;;;;;16.08;9.52;;;;;;;18.81;60.46;100363.41;4885383;28;97098;-87
2021/07/20 00:15:46;;;;;;;14.73;8.52;;;;;;;18.65;61.10;100346.78;4900979;28;98483;-86
2021/07/20 00:18:19;;;;;;;14.65;9.10;;;;;;;18.65;60.77;100358.25;4901110;28;101257;-87
2021/07/20 00:20:45;;;;;;;15.63;8.95;;;;;;;18.65;60.98;100357.41;4916904;28;96629;-86
2021/07/20 00:23:11;;;;;;;18.20;9.18;;;;;;;18.61;61.22;100356.72;4901387;28;96698;-85
2021/07/20 00:25:37;;;;;;;13.13;8.40;;;;;;;18.53;61.26;100349.28;4885255;28;101117;-88
2021/07/20 00:28:03;;;;;;;12.57;9.20;;;;;;;18.51;61.25;100347.69;4901046;28;101421;-88
2021/07/20 00:30:29;;;;;;;12.35;8.30;;;;;;;18.52;61.22;100346.72;4901298;28;96520;-88
2021/07/20 00:32:55;;;;;;;12.55;8.20;;;;;;;18.57;60.95;100343.75;4917105;28;96819;-89
2021/07/20 00:35:21;;;;;;;15.43;8.95;;;;;;;18.49;61.35;100347.78;4916505;28;101280;-88
2021/07/20 00:37:46;;;;;;;13.52;8.30;;;;;;;18.46;61.48;100349.78;4916794;28;98041;-89
2021/07/20 00:40:15;;;;;;;14.85;8.77;;;;;;;18.36;61.80;100346.06;4901245;28;96995;-89
2021/07/20 00:42:41;;;;;;;14.55;9.32;;;;;;;18.40;61.65;100351.03;4917557;28;96843;-89
2021/07/20 00:45:09;;;;;;;14.60;8.13;;;;;;;18.50;61.29;100345.97;4916588;28;98366;-89
2021/07/20 00:47:35;;;;;;;14.77;9.10;;;;;;;18.50;61.10;100345.97;4900339;28;101431;-88
2021/07/20 00:50:01;;;;;;;13.65;7.78;;;;;;;18.53;61.34;100354.59;4900445;28;96855;-89
2021/07/20 00:52:26;;;;;;;16.70;9.68;;;;;;;18.46;61.38;100357.75;4917631;28;96962;-88
2021/07/20 00:54:52;;;;;;;12.25;8.63;;;;;;;18.33;61.90;100339.97;4916188;28;101115;-89
2021/07/20 00:57:19;;;;;;;14.02;7.90;;;;;;;18.37;61.69;100351.25;4900899;28;100743;-89
2021/07/20 00:59:45;;;;;;;10.95;7.68;;;;;;;18.27;61.80;100343.03;4900411;28;96705;-86
2021/07/20 01:02:13;;;;;;;14.55;8.35;;;;;;;18.19;62.18;100344.50;4884841;28;96989;-89
2021/07/20 01:04:39;;;;;;;11.65;8.18;;;;;;;18.19;62.23;100336.53;4917010;28;98180;-89
2021/07/20 01:07:06;;;;;;;16.08;8.68;;;;;;;18.14;62.22;100328.84;4884465;28;100319;-89
2021/07/20 01:09:33;;;;;;;11.82;8.43;;;;;;;18.24;62.19;100329.97;4885472;28;96685;-89
2021/07/20 01:12:00;;;;;;;15.10;8.18;;;;;;;18.26;62.13;100335.16;4916636;28;96930;-88
2021/07/20 01:14:26;;;;;;;11.80;8.45;;;;;;;18.28;61.58;100334.09;4916504;28;100061;-89
2021/07/20 01:16:52;;;;;;;13.05;8.15;;;;;;;18.27;61.81;100339.53;4900455;28;100052;-89
2021/07/20 01:19:18;;;;;;;12.00;8.55;;;;;;;18.27;61.59;100334.22;4916864;28;97175;-89
2021/07/20 01:21:48;;;;;;;13.23;7.93;;;;;;;18.24;61.72;100335.28;4916862;28;96604;-90
2021/07/20 01:24:17;;;;;;;10.15;7.75;;;;;;;18.24;61.66;100331.78;4915412;28;98268;-89
2021/07/20 01:26:45;;;;;;;11.20;7.80;;;;;;;18.25;61.76;100333.47;4884743;28;101915;-89
2021/07/20 01:29:12;;;;;;;13.55;7.88;;;;;;;18.18;62.08;100330.38;4916096;28;96550;-89
2021/07/20 01:31:41;;;;;;;16.15;7.88;;;;;;;18.14;61.60;100318.22;4900919;28;96902;-89
2021/07/20 01:34:11;;;;;;;12.75;8.60;;;;;;;18.06;61.81;100320.53;4899975;28;101436;-89
2021/07/20 01:36:40;;;;;;;9.65;7.38;;;;;;;17.99;62.60;100325.38;4900249;28;102198;-89
2021/07/20 01:39:09;;;;;;;12.98;7.80;;;;;;;17.99;62.42;100321.88;4899851;28;96993;-89
2021/07/20 01:41:37;;;;;;;12.98;8.73;;;;;;;17.94;62.76;100316.84;4900825;28;96950;-89
2021/07/20 01:44:10;;;;;;;14.38;8.20;;;;;;;18.08;62.22;100323.94;4913031;28;98644;-88
2021/07/20 01:46:39;;;;;;;14.55;7.93;;;;;;;17.96;62.65;100322.09;4910336;28;102593;-89
2021/07/20 01:49:08;;;;;;;17.73;8.32;;;;;;;17.92;62.39;100320.56;4894945;28;97134;-89
2021/07/20 01:51:35;;;;;;;14.65;7.80;;;;;;;17.90;62.58;100322.47;4879871;28;96986;-88
2021/07/20 01:54:06;;;;;;;13.32;8.82;;;;;;;17.81;62.96;100323.94;4895659;28;101677;-89
2021/07/20 01:56:32;;;;;;;11.45;7.88;;;;;;;17.72;62.83;100312.06;4880959;28;101468;-89
2021/07/20 01:58:58;;;;;;;13.18;7.80;;;;;;;17.72;62.97;100317.38;4864910;28;96736;-89
2021/07/20 02:02:12;;;;;;;12.10;7.95;;;;;;;17.86;62.66;100320.03;4863334;28;96699;-89
2021/07/20 02:10:09;;;;;;;12.18;7.35;;;;;;;17.84;62.37;100311.31;4892427;28;97065;-89
2021/07/20 02:12:57;;;;;;;13.85;7.53;;;;;;;17.77;62.95;100314.41;4881551;28;97365;-88
2021/07/20 02:15:37;;;;;;;14.68;8.13;;;;;;;17.68;62.76;100317.66;4867654;28;98494;-89
2021/07/20 02:18:19;;;;;;;14.57;8.60;;;;;;;17.70;63.04;100321.91;4867503;28;101392;-88
2021/07/20 02:20:45;;;;;;;13.63;7.95;;;;;;;17.73;62.69;100318.22;4863954;28;97155;-89
2021/07/20 02:23:23;;;;;;;15.02;8.32;;;;;;;17.74;62.71;100319.91;4880015;28;96708;-89
2021/07/20 02:25:49;;;;;;;11.07;7.53;;;;;;;17.68;62.90;100325.63;4862241;28;100080;-89
2021/07/20 02:28:16;;;;;;;13.25;8.05;;;;;;;17.71;62.86;100320.09;4876224;28;101171;-90
2021/07/20 02:30:43;;;;;;;12.43;7.25;;;;;;;17.70;63.01;100316.59;4894841;28;97092;-89
2021/07/20 02:33:09;;;;;;;11.30;8.05;;;;;;;17.67;63.22;100323.91;4879039;28;96937;-89
2021/07/20 02:35:37;;;;;;;14.02;7.80;;;;;;;17.74;63.17;100319.91;4879260;28;102716;-89
2021/07/20 02:38:06;;;;;;;13.53;7.37;;;;;;;17.73;63.16;100315.56;4895096;28;100611;-89
2021/07/20 02:40:32;;;;;;;14.38;7.50;;;;;;;17.67;63.25;100327.41;4880509;28;96513;-89
2021/07/20 02:43:00;;;;;;;10.40;7.10;;;;;;;17.71;62.92;100320.94;4880097;28;96861;-89
2021/07/20 02:45:30;;;;;;;12.82;7.82;;;;;;;17.69;62.99;100328.19;4880659;28;101386;-89
2021/07/20 02:47:58;;;;;;;12.10;6.93;;;;;;;17.69;63.04;100327.34;4886974;28;101450;-89
2021/07/20 02:50:27;;;;;;;10.23;6.15;;;;;;;17.76;62.89;100331.28;4899640;28;96790;-88
2021/07/20 02:53:05;;;;;;;10.25;7.55;;;;;;;17.74;62.91;100330.53;4914893;28;96643;-89
2021/07/20 02:55:43;;;;;;;14.52;7.10;;;;;;;17.79;63.01;100328.47;4900515;28;101254;-89
2021/07/20 02:58:09;;;;;;;14.75;7.65;;;;;;;17.81;63.13;100330.09;4898956;28;101401;-89
2021/07/20 03:00:38;;;;;;;11.95;6.97;;;;;;;17.84;63.09;100318.41;4899919;28;96621;-88
2021/07/20 03:03:04;;;;;;;10.98;6.50;;;;;;;17.75;63.66;100327.78;4915985;28;96773;-88
2021/07/20 03:05:40;;;;;;;11.70;7.05;;;;;;;17.73;63.48;100324.38;4899589;28;101156;-88
2021/07/20 03:08:08;;;;;;;10.50;7.00;;;;;;;17.73;63.40;100316.41;4894037;28;100295;-89
2021/07/20 03:10:45;;;;;;;12.13;7.20;;;;;;;17.72;63.50;100322.69;4866776;28;97117;-88
2021/07/20 03:13:12;;;;;;;13.30;8.13;;;;;;;17.78;63.91;100324.13;4895116;28;96933;-88
2021/07/20 03:15:47;;;;;;;9.80;7.00;;;;;;;17.85;63.14;100318.31;4895398;28;100578;-89
2021/07/20 03:18:12;;;;;;;13.88;7.53;;;;;;;17.84;63.13;100326.38;4863249;28;101765;-88
2021/07/20 03:20:39;;;;;;;11.45;6.72;;;;;;;17.82;62.91;100321.16;4864180;28;96958;-89
2021/07/20 03:23:07;;;;;;;10.48;6.20;;;;;;;17.94;63.09;100323.97;4864521;28;96885;-89
2021/07/20 03:25:33;;;;;;;10.52;7.22;;;;;;;17.81;63.13;100321.28;4895405;28;100612;-89
2021/07/20 03:28:00;;;;;;;12.35;6.70;;;;;;;17.83;63.21;100319.34;4879175;28;101269;-86
2021/07/20 03:30:30;;;;;;;10.80;6.80;;;;;;;17.93;63.28;100317.81;4909378;28;97008;-88
2021/07/20 03:33:03;;;;;;;11.13;6.80;;;;;;;17.81;63.82;100323.94;4914393;28;97117;-89
2021/07/20 03:35:42;;;;;;;9.77;6.88;;;;;;;17.80;64.04;100324.84;4900124;28;101404;-89
2021/07/20 03:38:09;;;;;;;14.23;8.00;;;;;;;17.84;64.10;100318.41;4914091;28;98277;-89
2021/07/20 03:40:37;;;;;;;10.00;7.18;;;;;;;17.79;64.28;100313.38;4898933;28;96695;-89
2021/07/20 03:43:04;;;;;;;13.25;6.75;;;;;;;17.80;64.02;100315.13;4914297;28;96839;-89
2021/07/20 03:45:30;;;;;;;9.57;6.22;;;;;;;17.81;64.35;100315.97;4898363;28;100083;-89
2021/07/20 03:47:56;;;;;;;13.90;7.55;;;;;;;17.90;63.69;100326.00;4901363;28;100974;-89
2021/07/20 03:50:46;;;;;;;13.77;7.35;;;;;;;17.87;63.86;100321.72;4890165;28;96993;-89
2021/07/20 03:53:12;;;;;;;12.15;7.25;;;;;;;17.92;64.18;100320.56;4900940;28;96972;-89
2021/07/20 03:55:50;;;;;;;10.70;7.15;;;;;;;17.86;64.18;100325.34;4900930;28;98817;-89
2021/07/20 03:58:17;;;;;;;15.55;7.30;;;;;;;17.90;64.04;100317.16;4901163;28;101577;-89
2021/07/20 04:00:50;;;;;;;10.23;6.53;;;;;;;17.99;63.71;100320.06;4902224;28;96605;-89
2021/07/20 04:03:22;;;;;;;11.35;7.32;;;;;;;18.02;64.08;100322.53;4901663;28;97136;-89
2021/07/20 04:06:08;;;;;;;14.02;7.43;;;;;;;18.06;63.63;100312.56;4914707;28;97091;-89
2021/07/20 04:08:43;;;;;;;13.70;6.88;;;;;;;18.06;64.05;100317.88;4902938;28;99675;-89
2021/07/20 04:11:15;;;;;;;16.15;6.78;;;;;;;18.10;63.96;100319.38;4897854;28;97488;-88
2021/07/20 04:13:44;;;;;;;12.57;7.73;;;;;;;18.18;63.77;100329.50;4901947;28;96990;-88
2021/07/20 04:16:24;;;;;;;13.02;7.00;;;;;;;18.19;63.76;100328.56;4901824;28;102005;-88
2021/07/20 04:18:50;;;;;;;12.23;6.47;;;;;;;18.14;63.70;100323.53;4900481;28;101320;-87
2021/07/20 04:21:22;;;;;;;14.75;6.80;;;;;;;18.18;63.98;100330.38;4901391;28;96670;-87
2021/07/20 04:23:50;;;;;;;10.13;6.30;;;;;;;18.20;64.03;100324.94;4901851;28;96860;-87
2021/07/20 04:26:25;;;;;;;10.55;6.57;;;;;;;18.16;64.21;100328.75;4903450;28;102256;-90
2021/07/20 04:28:51;;;;;;;16.23;6.88;;;;;;;18.14;63.80;100330.66;4901149;28;101200;-88
2021/07/20 04:31:20;;;;;;;12.75;6.95;;;;;;;18.16;64.37;100328.75;4899955;28;97170;-88
2021/07/20 04:33:49;;;;;;;16.55;7.05;;;;;;;18.22;64.30;100325.69;4901146;28;97187;-87
2021/07/20 04:36:34;;;;;;;8.55;6.00;;;;;;;18.29;64.01;100334.94;4900720;28;96696;-88
2021/07/20 04:39:10;;;;;;;8.55;6.03;;;;;;;18.31;63.83;100333.91;4887491;28;101604;-88
2021/07/20 04:41:37;;;;;;;11.65;6.70;;;;;;;18.31;63.71;100338.38;4901522;28;97104;-89
2021/07/20 04:44:04;;;;;;;10.73;6.47;;;;;;;18.38;63.46;100346.78;4901413;28;96851;-87
2021/07/20 04:46:45;;;;;;;12.65;6.78;;;;;;;18.57;62.87;100343.75;4902198;28;100226;-88
2021/07/20 04:49:12;;;;;;;11.70;6.47;;;;;;;18.49;63.64;100344.25;4900388;28;101496;-88
2021/07/20 04:51:41;;;;;;;9.35;6.20;;;;;;;18.63;63.38;100340.69;4885179;28;96970;-87
2021/07/20 04:54:08;;;;;;;9.98;6.78;;;;;;;18.69;62.94;100345.59;4915092;28;97145;-88
2021/07/20 04:56:34;;;;;;;10.63;6.22;;;;;;;18.69;62.83;100351.75;4900115;28;100800;-88
2021/07/20 04:59:01;;;;;;;9.55;6.22;;;;;;;18.68;63.19;100352.72;4915205;28;101100;-88
2021/07/20 05:01:28;;;;;;;9.63;5.90;;;;;;;18.69;63.47;100346.44;4916814;28;97173;-88
2021/07/20 05:04:00;;;;;;;12.30;6.28;;;;;;;18.81;63.55;100351.91;4917242;28;97245;-89
2021/07/20 05:06:37;;;;;;;12.77;6.22;;;;;;;18.88;62.92;100354.06;4902167;28;100217;-88
2021/07/20 05:09:04;;;;;;;17.67;6.18;;;;;;;18.85;62.87;100351.63;4900417;28;101301;-88
2021/07/20 05:11:32;;;;;;;12.60;6.32;;;;;;;18.82;63.16;100354.50;4916300;28;96665;-89
2021/07/20 05:13:58;;;;;;;11.73;6.25;;;;;;;18.85;63.47;100351.63;4913886;28;96899;-91
2021/07/20 05:16:25;;;;;;;12.75;6.20;;;;;;;18.96;63.23;100358.84;4896319;28;100764;-92
2021/07/20 05:18:56;;;;;;;11.52;5.65;;;;;;;19.00;62.83;100358.53;4904355;28;101288;-90
2021/07/20 05:21:43;;;;;;;13.27;5.95;;;;;;;19.05;62.86;100370.66;4902687;28;96787;-92
2021/07/20 05:24:11;;;;;;;10.07;5.87;;;;;;;19.07;62.83;100366.94;4912172;28;96885;-93
2021/07/20 05:26:50;;;;;;;9.45;6.47;;;;;;;19.04;62.80;100369.81;4893335;28;100823;-88
2021/07/20 05:29:20;;;;;;;9.65;5.93;;;;;;;19.03;62.82;100375.25;4889670;28;100998;-92
2021/07/20 05:32:06;;;;;;;10.90;6.30;;;;;;;19.10;62.59;100374.72;4896485;28;96905;-87
2021/07/20 05:34:33;;;;;;;11.18;5.95;;;;;;;19.18;62.51;100367.06;4874308;28;96808;-90
2021/07/20 05:36:59;;;;;;;10.60;5.85;;;;;;;19.28;62.43;100367.25;4900309;28;101713;-91
2021/07/20 05:39:26;;;;;;;13.23;6.00;;;;;;;19.34;62.14;100361.50;4901103;28;99933;-90
2021/07/20 05:42:04;;;;;;;12.15;6.22;;;;;;;19.39;62.00;100371.84;4901484;28;97123;-92
2021/07/20 05:44:34;;;;;;;12.80;5.25;;;;;;;19.41;61.69;100377.94;4902532;28;96821;-93
2021/07/20 05:47:00;;;;;;;11.85;6.80;;;;;;;19.30;61.80;100384.00;4902210;28;98322;-92
2021/07/20 05:49:27;;;;;;;12.32;5.80;;;;;;;19.49;61.46;100386.22;4901208;28;100539;-92
2021/07/20 05:51:53;;;;;;;15.20;6.63;;;;;;;19.42;61.40;100387.59;4918214;28;96744;-90
2021/07/20 05:54:23;;;;;;;10.15;5.55;;;;;;;19.46;61.47;100389.13;4900087;28;97066;-92
2021/07/20 05:57:25;;;;;;;11.00;5.50;;;;;;;19.41;61.58;100402.72;4889292;28;97833;-92
2021/07/20 06:00:01;;;;;;;13.80;6.13;;;;;;;19.32;61.96;100407.84;4869091;28;101479;-92
2021/07/20 06:02:44;;;;;;;12.55;6.82;;;;;;;19.41;61.92;100402.72;4895881;28;96976;-92
2021/07/20 06:05:13;;;;;;;14.02;6.03;;;;;;;19.48;61.76;100400.47;4866722;28;97367;-89
2021/07/20 06:07:39;;;;;;;13.07;5.57;;;;;;;19.57;61.67;100397.16;4866311;28;102125;-93
2021/07/20 06:10:05;;;;;;;10.45;6.13;;;;;;;19.71;61.10;100392.72;4881611;28;101344;-93
2021/07/20 06:12:31;;;;;;;13.05;6.30;;;;;;;19.82;60.67;100392.81;4897153;28;96731;-91
2021/07/20 06:14:59;;;;;;;10.88;5.90;;;;;;;20.08;60.27;100399.78;4882647;28;97172;-91
2021/07/20 06:17:24;;;;;;;11.88;6.05;;;;;;;20.20;59.95;100392.69;4882990;28;101348;-93
2021/07/20 06:19:51;;;;;;;9.82;5.40;;;;;;;20.42;59.33;100400.00;4916766;28;101090;-91
2021/07/20 06:22:22;;;;;;;8.73;5.07;;;;;;;20.56;59.04;100404.31;4900293;28;96842;-90
2021/07/20 06:24:55;;;;;;;12.38;5.70;;;;;;;20.68;58.58;100400.75;4901912;28;96857;-91
2021/07/20 06:27:22;;;;;;;10.02;5.50;;;;;;;20.80;58.21;100397.16;4899313;28;100280;-90
2021/07/20 06:29:55;;;;;;;13.00;5.93;;;;;;;20.90;57.98;100404.44;4899869;28;101066;-91
2021/07/20 06:32:22;;;;;;;12.05;6.07;;;;;;;21.05;57.21;100402.44;4912665;28;97223;-90
2021/07/20 06:34:48;;;;;;;11.48;5.63;;;;;;;21.57;55.90;100399.25;4915964;28;97832;-89
2021/07/20 06:37:15;;;;;;;9.73;5.32;;;;;;;22.25;54.61;100392.06;4891664;28;97381;-89
2021/07/20 06:39:41;;;;;;;7.32;5.47;;;;;;;22.25;54.70;100388.53;4893323;28;100240;-90
2021/07/20 06:42:08;;;;;;;9.93;5.95;;;;;;;22.25;54.41;100399.22;4898310;28;97322;-91
2021/07/20 06:44:35;;;;;;;10.68;5.75;;;;;;;22.69;53.31;100398.25;4884997;28;98083;-91
2021/07/20 06:47:01;;;;;;;11.15;5.72;;;;;;;22.94;52.86;100407.72;4917040;28;98472;-90
2021/07/20 06:49:27;;;;;;;9.95;5.70;;;;;;;23.18;52.54;100402.13;4899754;28;100612;-90
2021/07/20 06:51:53;;;;;;;8.75;5.15;;;;;;;23.26;51.95;100399.63;4900057;28;96718;-90
2021/07/20 06:54:18;;;;;;;16.45;5.40;;;;;;;23.05;52.31;100398.81;4900504;28;97499;-90
2021/07/20 06:56:50;;;;;;;11.18;5.30;;;;;;;23.22;51.90;100403.56;4891533;28;101706;-91
2021/07/20 06:59:16;;;;;;;12.48;5.10;;;;;;;23.43;52.17;100392.00;4898047;28;98401;-91
2021/07/20 07:01:43;;;;;;;9.68;4.88;;;;;;;23.56;51.66;100397.13;4898804;28;97109;-91
2021/07/20 07:04:36;;;;;;;8.88;5.57;;;;;;;23.76;51.41;100395.41;4898720;28;96989;-89
2021/07/20 07:07:02;;;;;;;12.02;4.85;;;;;;;23.92;51.05;100398.44;4897788;28;98437;-81
2021/07/20 07:09:29;;;;;;;12.50;5.30;;;;;;;24.08;50.04;100395.22;4886905;28;98762;-88
2021/07/20 07:11:55;;;;;;;8.23;4.97;;;;;;;24.48;49.43;100380.91;4891141;28;97234;-86
2021/07/20 07:14:23;;;;;;;17.20;6.63;;;;;;;25.63;46.76;100376.38;4896137;28;96981;-85
2021/07/20 07:16:52;;;;;;;20.33;6.47;;;;;;;28.27;42.42;100386.38;4892512;28;101144;-87
2021/07/20 07:19:21;;;;;;;14.93;6.43;;;;;;;29.98;39.31;100380.00;4885792;28;101667;-86
2021/07/20 07:21:48;;;;;;;15.18;6.28;;;;;;;29.42;39.73;100379.19;4897737;28;97322;-86
2021/07/20 07:24:15;;;;;;;15.40;5.53;;;;;;;28.60;40.86;100376.53;4899452;28;96933;-87
2021/07/20 07:26:41;;;;;;;11.43;4.93;;;;;;;30.61;37.70;100381.66;4914223;28;100438;-79
2021/07/20 07:29:08;;;;;;;9.90;4.35;;;;;;;31.43;36.41;100369.25;4897450;28;97882;-81
2021/07/20 07:31:34;;;;;;;12.70;5.22;;;;;;;31.20;36.32;100380.13;4893830;28;96756;-78
2021/07/20 07:34:00;;;;;;;8.43;4.50;;;;;;;32.12;35.38;100377.91;4900332;28;96755;-79
2021/07/20 07:36:26;;;;;;;8.98;4.63;;;;;;;32.50;34.76;100371.44;4898900;28;101423;-79
2021/07/20 07:38:54;;;;;;;11.20;4.53;;;;;;;33.09;33.45;100377.41;4899678;28;101682;-79
2021/07/20 07:41:20;;;;;;;7.35;4.10;;;;;;;33.90;33.06;100367.84;4899914;28;96839;-79
2021/07/20 07:43:46;;;;;;;8.32;4.32;;;;;;;33.48;32.68;100373.28;4900734;28;96953;-79
2021/07/20 07:46:13;;;;;;;7.95;4.30;;;;;;;34.11;32.77;100375.06;4899900;28;101074;-78
2021/07/20 07:48:40;;;;;;;9.00;4.72;;;;;;;33.83;32.63;100383.28;4899607;28;101839;-79
2021/07/20 07:51:06;;;;;;;8.23;4.13;;;;;;;34.86;31.14;100378.56;4895036;28;96993;-79
2021/07/20 07:53:34;;;;;;;8.40;3.90;;;;;;;34.99;30.91;100378.53;4898437;28;97539;-86
2021/07/20 07:56:02;;;;;;;6.78;4.30;;;;;;;35.41;29.85;100376.41;4909872;28;98382;-86
2021/07/20 07:58:30;;;;;;;12.00;4.40;;;;;;;35.59;30.39;100376.59;4891762;28;98482;-80
2021/07/20 08:01:01;;;;;;;7.77;3.80;;;;;;;35.95;29.49;100377.91;4898738;28;97073;-79
2021/07/20 08:03:28;;;;;;;5.90;4.00;;;;;;;36.25;28.82;100370.03;4909708;28;97284;-79
2021/07/20 08:05:54;;;;;;;7.57;4.07;;;;;;;35.78;29.58;100372.13;4914825;28;98798;-79
2021/07/20 08:08:20;;;;;;;8.48;4.03;;;;;;;34.09;31.72;100363.53;4898218;28;101579;-80
2021/07/20 08:10:47;;;;;;;7.88;4.22;;;;;;;36.01;29.51;100366.16;4899254;28;96908;-79
2021/07/20 08:13:13;;;;;;;9.55;4.28;;;;;;;36.50;27.95;100355.56;4897786;28;97216;-79
2021/07/20 08:15:39;;;;;;;18.48;4.82;;;;;;;36.31;28.18;100362.84;4878981;28;101424;-79
2021/07/20 08:18:05;;;;;;;6.65;3.60;;;;;;;37.20;27.57;100358.16;4899030;28;98335;-79
2021/07/20 08:20:32;;;;;;;7.40;3.55;;;;;;;36.85;27.84;100361.38;4897174;28;97063;-80
2021/07/20 08:22:57;;;;;;;6.07;3.38;;;;;;;36.17;28.40;100359.34;4899713;28;97196;-79
2021/07/20 08:25:27;;;;;;;6.07;3.42;;;;;;;36.81;27.36;100354.72;4898388;28;98103;-80
2021/07/20 08:28:07;;;;;;;13.48;4.45;;;;;;;36.95;27.18;100358.16;4913029;28;98100;-78
2021/07/20 08:30:36;;;;;;;6.15;3.42;;;;;;;36.32;27.84;100352.75;4895164;28;96814;-80
2021/07/20 08:33:02;;;;;;;8.88;4.35;;;;;;;35.73;28.34;100363.75;4895907;28;97255;-80
2021/07/20 08:35:30;;;;;;;3.95;2.90;;;;;;;36.34;28.25;100350.66;4895242;28;101273;-80
2021/07/20 08:38:00;;;;;;;6.10;3.58;;;;;;;35.68;28.80;100354.53;4896049;28;97926;-79
2021/07/20 08:40:44;;;;;;;7.63;3.55;;;;;;;36.01;27.92;100357.94;4895039;28;97257;-80
2021/07/20 08:43:15;;;;;;;6.90;3.50;;;;;;;36.02;27.76;100361.50;4913705;28;96744;-79
2021/07/20 08:46:03;;;;;;;5.75;3.83;;;;;;;36.16;27.82;100356.81;4911100;28;101911;-80
2021/07/20 08:48:50;;;;;;;9.45;4.30;;;;;;;36.75;26.47;100362.97;4898710;28;98674;-81
2021/07/20 08:51:25;;;;;;;6.72;4.05;;;;;;;36.17;27.56;100356.63;4894684;28;97352;-81
2021/07/20 08:53:56;;;;;;;6.93;3.83;;;;;;;35.40;28.65;100362.97;4893673;28;97154;-82
2021/07/20 08:56:23;;;;;;;8.05;4.25;;;;;;;36.63;27.66;100357.41;4904967;28;101557;-79
2021/07/20 08:59:07;;;;;;;6.78;3.70;;;;;;;36.52;27.30;100358.94;4876034;28;101808;-80
2021/07/20 09:01:43;;;;;;;5.25;3.45;;;;;;;35.31;28.35;100359.63;4887357;28;97235;-79
2021/07/20 09:04:17;;;;;;;6.55;3.80;;;;;;;32.99;31.34;100360.59;4891456;28;97005;-79
2021/07/20 09:06:48;;;;;;;7.38;3.90;;;;;;;32.59;32.47;100362.94;4898342;28;101590;-84
2021/07/20 09:09:14;;;;;;;5.38;3.95;;;;;;;32.35;33.22;100357.84;4899638;28;100666;-82
2021/07/20 09:11:57;;;;;;;7.88;4.43;;;;;;;31.77;34.42;100358.66;4897821;28;96746;-84
2021/07/20 09:14:39;;;;;;;5.07;3.95;;;;;;;31.14;34.29;100354.63;4881551;28;96926;-84
2021/07/20 09:17:11;;;;;;;9.73;3.85;;;;;;;31.55;33.91;100355.03;4889951;28;101427;-84
2021/07/20 09:19:46;;;;;;;9.10;4.18;;;;;;;31.39;34.13;100349.81;4896266;28;100155;-84
2021/07/20 09:22:17;;;;;;;5.50;3.80;;;;;;;31.03;34.30;100346.94;4898129;28;96825;-84
2021/07/20 09:24:46;;;;;;;11.25;4.40;;;;;;;30.86;35.43;100344.41;4905886;28;96783;-84
2021/07/20 09:27:20;;;;;;;7.30;3.72;;;;;;;30.96;35.09;100346.00;4903566;28;101345;-84
2021/07/20 09:29:47;;;;;;;6.63;4.38;;;;;;;30.42;36.24;100345.06;4911359;28;101438;-84
2021/07/20 09:32:47;;;;;;;8.57;4.32;;;;;;;30.23;36.39;100356.38;4898428;28;96658;-83
2021/07/20 09:35:25;;;;;;;;;;;;;;;29.65;37.23;100357.66;4882887;28;97016;-84
2021/07/20 09:37:53;;;;;;;9.48;4.15;;;;;;;29.52;36.98;100352.75;4880855;28;101392;-83
2021/07/20 09:40:37;;;;;;;4.15;3.50;;;;;;;29.72;36.89;100354.06;4896747;28;101323;-83
2021/07/20 09:43:07;;;;;;;5.30;3.70;;;;;;;29.28;36.70;100345.59;4905665;28;96776;-82
2021/07/20 09:45:39;;;;;;;4.83;4.17;;;;;;;29.03;38.15;100342.06;4895756;28;97203;-83
2021/07/20 09:48:23;;;;;;;12.32;4.10;;;;;;;29.04;37.95;100343.78;4897123;28;98562;-84
2021/07/20 09:50:59;;;;;;;6.97;3.78;;;;;;;28.97;38.05;100337.34;4913721;28;99154;-83
2021/07/20 09:53:41;;;;;;;8.48;4.05;;;;;;;28.86;38.35;100338.53;4886746;28;96840;-83
2021/07/20 09:56:22;;;;;;;10.25;4.30;;;;;;;28.56;39.86;100349.00;4885756;28;96859;-82
2021/07/20 09:59:06;;;;;;;8.38;4.63;;;;;;;28.67;38.47;100339.72;4894849;28;102148;-83
2021/07/20 10:01:36;;;;;;;7.85;4.55;;;;;;;28.58;39.10;100359.66;4912850;28;97375;-84
2021/07/20 10:04:12;;;;;;;8.40;3.92;;;;;;;28.61;38.74;100351.22;4897995;28;96773;-83
2021/07/20 10:06:41;;;;;;;7.70;4.40;;;;;;;28.16;38.91;100353.31;4892364;28;97255;-83
2021/07/20 10:09:15;;;;;;;12.07;4.47;;;;;;;28.32;39.45;100362.44;4905860;28;101630;-84
2021/07/20 10:11:53;;;;;;;6.78;4.25;;;;;;;28.20;39.67;100356.53;4878410;28;97910;-83
2021/07/20 10:14:28;;;;;;;10.32;4.18;;;;;;;28.07;40.57;100351.63;4894673;28;96923;-82
2021/07/20 10:17:12;;;;;;;7.95;4.32;;;;;;;28.08;39.96;100350.59;4896094;28;96874;-89
2021/07/20 10:19:44;;;;;;;6.22;3.28;;;;;;;28.30;39.54;100341.00;4895568;28;98415;-90
2021/07/20 10:22:14;;;;;;;4.13;3.50;;;;;;;28.42;38.71;100345.13;4896628;28;98069;-90
2021/07/20 10:24:45;;;;;;;5.55;3.80;;;;;;;28.27;38.79;100351.31;4880174;28;96864;-90
2021/07/20 10:27:27;;;;;;;7.25;3.30;;;;;;;27.72;39.74;100340.03;4881107;28;96719;-90
2021/07/20 10:30:09;;;;;;;6.63;3.60;;;;;;;27.54;39.57;100345.47;4881012;28;98242;-89
2021/07/20 10:33:00;;;;;;;7.28;3.72;;;;;;;27.05;40.96;100344.31;4895846;28;101541;-90
2021/07/20 10:35:46;;;;;;;6.57;3.63;;;;;;;27.01;40.61;100342.97;4896133;28;96647;-89
2021/07/20 10:38:17;;;;;;;7.75;3.72;;;;;;;26.90;40.38;100349.44;4864791;28;96616;-90
2021/07/20 10:40:43;;;;;;;6.60;3.70;;;;;;;26.92;40.74;100349.31;4878767;28;100581;-91
2021/07/20 10:43:23;;;;;;;6.07;4.10;;;;;;;26.84;40.29;100347.38;4879929;28;98210;-90
2021/07/20 10:45:49;;;;;;;6.03;3.75;;;;;;;26.76;41.34;100344.63;4895699;28;96947;-89
2021/07/20 10:48:17;;;;;;;8.55;5.30;;;;;;;27.00;40.96;100338.59;4880299;28;96960;-90
2021/07/20 10:51:03;;;;;;;6.75;4.15;;;;;;;26.95;40.42;100343.59;4895614;28;98450;-90
2021/07/20 10:53:41;;;;;;;8.57;3.78;;;;;;;26.84;40.57;100342.00;4863767;28;101326;-90
2021/07/20 10:56:19;;;;;;;10.60;4.43;;;;;;;26.74;40.91;100347.50;4896505;28;96831;-90
2021/07/20 10:58:48;;;;;;;7.28;4.00;;;;;;;26.62;40.91;100346.88;4895823;28;97237;-89
2021/07/20 11:01:22;;;;;;;6.78;3.65;;;;;;;26.63;41.13;100355.81;4894583;28;100464;-84
2021/07/20 11:04:06;;;;;;;6.57;4.10;;;;;;;26.48;41.77;100351.94;4877985;28;101207;-83
2021/07/20 11:06:34;;;;;;;6.63;4.00;;;;;;;26.45;42.42;100357.63;4893346;28;96627;-83
2021/07/20 11:09:02;;;;;;;9.35;4.00;;;;;;;26.36;43.40;100357.56;4894618;28;96863;-84
2021/07/20 11:11:32;;;;;;;5.82;3.47;;;;;;;26.37;43.20;100348.47;4881634;28;102166;-84
2021/07/20 11:13:59;;;;;;;4.90;3.45;;;;;;;26.25;43.34;100352.41;4895357;28;100694;-83
2021/07/20 11:16:26;;;;;;;4.43;3.33;;;;;;;26.25;43.57;100357.78;4894076;28;96796;-84
2021/07/20 11:18:53;;;;;;;7.28;3.63;;;;;;;26.09;43.95;100347.72;4894150;28;96983;-84
2021/07/20 11:21:22;;;;;;;5.15;3.88;;;;;;;25.99;43.87;100348.75;4910119;28;98468;-84
2021/07/20 11:23:48;;;;;;;8.18;3.60;;;;;;;25.86;43.47;100346.41;4896482;28;101782;-84
2021/07/20 11:26:16;;;;;;;6.32;3.75;;;;;;;25.86;43.63;100351.78;4913601;28;96624;-84
2021/07/20 11:28:44;;;;;;;8.70;4.13;;;;;;;25.80;44.00;100355.03;4912859;28;97072;-92
2021/07/20 11:31:32;;;;;;;9.68;4.78;;;;;;;25.85;43.52;100348.25;4911595;28;98483;-85
2021/07/20 11:34:04;;;;;;;6.07;3.80;;;;;;;25.94;44.16;100341.13;4925481;28;97951;-84
2021/07/20 11:36:38;;;;;;;5.43;3.80;;;;;;;25.81;44.61;100346.00;4908688;28;97130;-84
2021/07/20 11:39:05;;;;;;;8.00;3.72;;;;;;;25.85;44.51;100342.88;4894774;28;97247;-85